Time;durP1;ratioP1;P1;durP2;ratioP2;P2;SDS_P1;SDS_P2;PMS_P1;PMS_P2;Temp;Humidity;BMP_temperature;BMP_pressure;BME280_temperature;BME280_humidity;BME280_pressure;Samples;Min_cycle;Max_cycle;Signal;HPM_P1;HPM_P2
2024/03/28 00:02:05;;;;;;;0.38;0.30;;;6.90;99.90;;;;;;4958150;28;20047;-62
2024/03/28 00:04:32;;;;;;;0.52;0.38;;;6.90;99.90;;;;;;4960698;28;20055;-62
2024/03/28 00:06:58;;;;;;;0.55;0.45;;;7.00;99.90;;;;;;4958386;28;20065;-61
2024/03/28 00:09:25;;;;;;;0.63;0.50;;;7.00;99.90;;;;;;4963842;28;20059;-60
2024/03/28 00:11:51;;;;;;;0.30;0.30;;;7.10;99.90;;;;;;4955700;28;20066;-62
2024/03/28 00:14:18;;;;;;;0.82;0.50;;;7.10;99.90;;;;;;4962945;28;20065;-61
2024/03/28 00:16:44;;;;;;;0.60;0.60;;;7.10;99.90;;;;;;4965962;28;20042;-61
2024/03/28 00:19:09;;;;;;;0.57;0.57;;;7.10;99.90;;;;;;4964466;28;20057;-62
2024/03/28 00:21:36;;;;;;;1.50;0.60;;;7.00;99.90;;;;;;4959126;28;20046;-62
2024/03/28 00:24:02;;;;;;;0.50;0.50;;;7.00;99.90;;;;;;4963388;28;20054;-61
2024/03/28 00:26:28;;;;;;;0.55;0.50;;;6.90;99.90;;;;;;4958636;28;20050;-62
2024/03/28 00:28:53;;;;;;;0.45;0.45;;;6.90;99.90;;;;;;4960728;28;20058;-62
2024/03/28 00:31:20;;;;;;;1.75;0.50;;;6.80;99.90;;;;;;4966692;28;20106;-62
2024/03/28 00:33:45;;;;;;;0.30;0.30;;;6.90;99.90;;;;;;4963708;28;20495;-62
2024/03/28 00:36:11;;;;;;;3.30;0.40;;;6.90;99.90;;;;;;4960882;28;20054;-62
2024/03/28 00:38:37;;;;;;;0.40;0.40;;;7.00;99.90;;;;;;4958368;28;20130;-61
2024/03/28 00:41:03;;;;;;;0.40;0.30;;;7.10;99.90;;;;;;4964102;28;20385;-62
2024/03/28 00:43:29;;;;;;;0.40;0.40;;;7.20;99.90;;;;;;4964980;28;20462;-62
2024/03/28 00:45:55;;;;;;;0.75;0.38;;;7.20;99.90;;;;;;4961819;28;20074;-62
2024/03/28 00:48:20;;;;;;;0.50;0.50;;;7.20;99.90;;;;;;4957773;28;20098;-62
2024/03/28 00:50:56;;;;;;;0.50;0.40;;;7.20;99.90;;;;;;4963798;28;20059;-62
2024/03/28 00:53:22;;;;;;;1.10;0.43;;;7.20;99.90;;;;;;4960004;28;20050;-62
2024/03/28 00:55:48;;;;;;;0.45;0.40;;;7.10;99.90;;;;;;4962644;28;20047;-62
2024/03/28 00:58:15;;;;;;;0.50;0.30;;;7.10;99.90;;;;;;4964173;28;20074;-62
2024/03/28 01:00:42;;;;;;;1.45;0.43;;;7.00;99.90;;;;;;4960550;28;20196;-62
2024/03/28 01:03:08;;;;;;;0.40;0.40;;;6.90;99.90;;;;;;4959061;28;20058;-62
2024/03/28 01:05:34;;;;;;;0.40;0.40;;;6.90;99.90;;;;;;4956108;28;20058;-62
2024/03/28 01:08:00;;;;;;;0.55;0.40;;;6.90;99.90;;;;;;4958872;28;20054;-62
2024/03/28 01:10:26;;;;;;;0.40;0.40;;;6.80;99.90;;;;;;4959138;28;20066;-61
2024/03/28 01:12:52;;;;;;;0.60;0.60;;;6.80;99.90;;;;;;4960839;28;20403;-61
2024/03/28 01:15:18;;;;;;;1.00;0.43;;;6.70;99.90;;;;;;4960326;28;20078;-62
2024/03/28 01:17:45;;;;;;;0.95;0.43;;;6.60;99.90;;;;;;4960769;28;20452;-61
2024/03/28 01:20:11;;;;;;;0.68;0.57;;;6.60;99.90;;;;;;4963290;28;20419;-61
2024/03/28 01:22:40;;;;;;;0.60;0.60;;;6.60;99.90;;;;;;4959265;28;20778;-62
2024/03/28 01:25:07;;;;;;;0.35;0.35;;;6.70;99.90;;;;;;4985760;28;20051;-61
2024/03/28 01:27:40;;;;;;;0.40;0.40;;;6.90;99.90;;;;;;4936972;28;20515;-62
2024/03/28 01:30:09;;;;;;;0.68;0.50;;;7.00;99.90;;;;;;4962949;28;20062;-62
2024/03/28 01:32:35;;;;;;;0.45;0.45;;;7.10;99.90;;;;;;4955766;28;20047;-62
2024/03/28 01:35:01;;;;;;;0.40;0.40;;;7.10;99.90;;;;;;4960396;28;20073;-62
2024/03/28 01:37:27;;;;;;;1.63;0.43;;;7.10;99.90;;;;;;4956244;28;20535;-62
2024/03/28 01:39:53;;;;;;;1.15;0.75;;;7.10;99.90;;;;;;4948518;28;20061;-62
2024/03/28 01:42:19;;;;;;;0.50;0.50;;;7.10;99.90;;;;;;4960008;28;20055;-62
2024/03/28 01:44:45;;;;;;;1.13;0.77;;;7.00;99.90;;;;;;4960090;28;20561;-61
2024/03/28 01:47:11;;;;;;;1.17;0.50;;;7.00;99.90;;;;;;4954242;28;20050;-61
2024/03/28 01:49:37;;;;;;;2.05;0.68;;;7.10;99.90;;;;;;4956227;28;20121;-62
2024/03/28 01:52:05;;;;;;;0.60;0.40;;;7.10;99.90;;;;;;4956883;28;20054;-62
2024/03/28 01:54:34;;;;;;;1.13;0.50;;;7.00;99.90;;;;;;4963180;28;20038;-62
2024/03/28 01:57:01;;;;;;;1.08;0.57;;;7.00;99.90;;;;;;4960331;28;20051;-62
2024/03/28 01:59:27;;;;;;;0.40;0.40;;;7.00;99.90;;;;;;4966196;28;20081;-62
2024/03/28 02:01:55;;;;;;;1.17;0.60;;;6.90;99.90;;;;;;4959119;28;20058;-61
2024/03/28 02:04:21;;;;;;;1.50;0.60;;;6.90;99.90;;;;;;4953300;28;20047;-62
2024/03/28 02:06:46;;;;;;;1.27;0.60;;;7.00;99.90;;;;;;4980563;28;20101;-62
2024/03/28 02:09:12;;;;;;;0.70;0.60;;;7.00;99.90;;;;;;4964962;28;20062;-62
2024/03/28 02:11:38;;;;;;;0.40;0.40;;;7.00;99.90;;;;;;4957206;28;20050;-62
2024/03/28 02:14:04;;;;;;;1.10;0.40;;;7.00;99.90;;;;;;4963259;28;20051;-62
2024/03/28 02:16:37;;;;;;;0.47;0.47;;;7.00;99.90;;;;;;4960831;28;20054;-62
2024/03/28 02:19:03;;;;;;;0.40;0.40;;;6.90;99.90;;;;;;4961570;28;20046;-61
2024/03/28 02:21:29;;;;;;;4.40;1.00;;;6.80;99.90;;;;;;4938691;28;20503;-62
2024/03/28 02:23:55;;;;;;;1.40;0.90;;;6.80;99.90;;;;;;4963729;28;20056;-62
2024/03/28 02:26:23;;;;;;;0.50;0.50;;;6.80;99.90;;;;;;4958429;28;20058;-62
2024/03/28 02:28:50;;;;;;;0.88;0.50;;;6.80;99.90;;;;;;4960255;28;20054;-62
2024/03/28 02:31:16;;;;;;;0.73;0.50;;;6.70;99.90;;;;;;4959477;28;20065;-62
2024/03/28 02:33:42;;;;;;;1.00;0.60;;;6.60;99.90;;;;;;4960092;28;20054;-62
2024/03/28 02:36:08;;;;;;;0.68;0.68;;;6.50;99.90;;;;;;4954443;28;20054;-62
2024/03/28 02:38:34;;;;;;;0.68;0.60;;;6.50;99.90;;;;;;4959855;28;20054;-62
2024/03/28 02:41:00;;;;;;;0.40;0.40;;;6.50;99.90;;;;;;4942799;28;20113;-61
2024/03/28 02:43:26;;;;;;;0.45;0.45;;;6.60;99.90;;;;;;4958227;28;20143;-61
2024/03/28 02:45:51;;;;;;;0.90;0.40;;;6.70;99.90;;;;;;4950544;28;20104;-62
2024/03/28 02:48:18;;;;;;;0.40;0.40;;;6.80;99.90;;;;;;4951588;28;20106;-62
2024/03/28 02:50:45;;;;;;;0.50;0.40;;;7.00;99.90;;;;;;4956987;28;20058;-62
2024/03/28 02:53:11;;;;;;;0.38;0.38;;;7.20;99.90;;;;;;4955223;28;20050;-62
2024/03/28 02:55:36;;;;;;;2.50;0.30;;;7.20;99.90;;;;;;4938057;28;20062;-62
2024/03/28 02:58:02;;;;;;;0.38;0.38;;;7.20;99.90;;;;;;4959007;28;20086;-62
2024/03/28 03:00:28;;;;;;;0.70;0.43;;;7.10;99.90;;;;;;4954670;28;20046;-62
2024/03/28 03:02:54;;;;;;;1.83;0.85;;;7.20;99.90;;;;;;4959736;28;20100;-62
2024/03/28 03:05:20;;;;;;;2.03;1.25;;;7.00;99.90;;;;;;4950629;28;20054;-62
2024/03/28 03:07:47;;;;;;;1.33;1.05;;;6.20;99.90;;;;;;4956666;28;20492;-62
2024/03/28 03:10:13;;;;;;;2.20;1.25;;;5.60;99.90;;;;;;4959109;28;20065;-62
2024/03/28 03:12:39;;;;;;;2.40;1.00;;;5.30;99.90;;;;;;4959771;28;20066;-62
2024/03/28 03:15:05;;;;;;;2.00;1.17;;;5.10;99.90;;;;;;4960715;28;20054;-62
2024/03/28 03:17:31;;;;;;;2.08;1.30;;;5.00;99.90;;;;;;4959734;28;20047;-62
2024/03/28 03:19:58;;;;;;;2.97;1.20;;;5.00;99.90;;;;;;4958886;28;20126;-62
2024/03/28 03:22:26;;;;;;;2.10;1.38;;;4.90;99.90;;;;;;4961560;28;20062;-62
2024/03/28 03:24:58;;;;;;;2.58;1.30;;;4.80;99.90;;;;;;4955544;28;20062;-60
2024/03/28 03:27:32;;;;;;;1.50;1.35;;;4.70;99.90;;;;;;4957570;28;20111;-61
2024/03/28 03:35:30;;;;;;;2.50;1.20;;;4.50;99.90;;;;;;4958677;28;20071;-61
2024/03/28 03:37:56;;;;;;;4.25;1.20;;;4.50;99.90;;;;;;4964574;28;20054;-61
2024/03/28 03:40:23;;;;;;;6.70;1.40;;;4.50;99.90;;;;;;4962849;28;20058;-61
2024/03/28 03:42:49;;;;;;;4.60;1.50;;;4.60;99.90;;;;;;4964920;28;20055;-61
2024/03/28 03:45:15;;;;;;;2.05;1.50;;;4.80;99.90;;;;;;4964800;28;20113;-61
2024/03/28 03:47:40;;;;;;;2.83;1.45;;;4.90;99.90;;;;;;4958030;28;20568;-62
2024/03/28 03:50:06;;;;;;;1.65;1.35;;;5.00;99.90;;;;;;4961098;28;20065;-62
2024/03/28 03:52:33;;;;;;;3.00;2.28;;;5.10;99.90;;;;;;4959459;28;20055;-62
2024/03/28 03:54:59;;;;;;;3.38;2.58;;;5.20;99.90;;;;;;4959016;28;20053;-62
2024/03/28 03:57:25;;;;;;;6.20;3.95;;;5.40;99.90;;;;;;4966023;28;20445;-62
2024/03/28 03:59:51;;;;;;;3.30;2.47;;;5.30;99.90;;;;;;4963398;28;20106;-62
2024/03/28 04:02:17;;;;;;;2.55;1.83;;;5.40;99.90;;;;;;4954862;28;20063;-61
2024/03/28 04:04:43;;;;;;;2.72;1.90;;;5.30;99.90;;;;;;4960455;28;20051;-62
2024/03/28 04:07:08;;;;;;;2.33;1.30;;;5.30;99.90;;;;;;4962576;28;20058;-62
2024/03/28 04:09:34;;;;;;;5.53;1.67;;;5.30;99.90;;;;;;4959072;28;20126;-62
2024/03/28 04:12:00;;;;;;;2.90;1.38;;;5.40;99.90;;;;;;4960711;28;20062;-62
2024/03/28 04:14:26;;;;;;;2.00;1.27;;;5.50;99.90;;;;;;4959093;28;20051;-62
2024/03/28 04:16:51;;;;;;;1.38;0.88;;;5.60;99.90;;;;;;4964104;28;20051;-61
2024/03/28 04:19:17;;;;;;;0.93;0.75;;;6.00;99.90;;;;;;4962350;28;20050;-62
2024/03/28 04:21:43;;;;;;;0.50;0.50;;;6.50;99.90;;;;;;4964078;28;20054;-62
2024/03/28 04:24:09;;;;;;;0.30;0.30;;;7.20;99.90;;;;;;4962535;28;20388;-62
2024/03/28 04:26:34;;;;;;;0.50;0.50;;;8.00;99.90;;;;;;4959747;28;20050;-62
2024/03/28 04:29:00;;;;;;;1.42;0.70;;;8.30;99.90;;;;;;4946480;28;20058;-62
2024/03/28 04:31:26;;;;;;;0.40;0.40;;;8.40;99.90;;;;;;4959281;28;20055;-62
2024/03/28 04:33:52;;;;;;;0.40;0.40;;;8.50;99.90;;;;;;4964558;28;20409;-62
2024/03/28 04:36:18;;;;;;;0.57;0.50;;;8.50;99.90;;;;;;4963245;28;20057;-62
2024/03/28 04:38:45;;;;;;;1.33;0.50;;;8.60;99.90;;;;;;4966150;28;20050;-62
2024/03/28 04:41:13;;;;;;;0.50;0.50;;;8.70;99.90;;;;;;4950125;28;20050;-62
2024/03/28 04:43:39;;;;;;;0.43;0.40;;;8.70;99.90;;;;;;4961742;28;20519;-62
2024/03/28 04:46:05;;;;;;;0.98;0.45;;;8.70;99.90;;;;;;4964090;28;20519;-62
2024/03/28 04:48:31;;;;;;;0.60;0.40;;;8.70;99.90;;;;;;4961921;28;20054;-62
2024/03/28 04:50:58;;;;;;;0.40;0.40;;;8.80;99.90;;;;;;4959672;28;20050;-62
2024/03/28 04:53:24;;;;;;;1.55;0.60;;;8.80;99.90;;;;;;4967758;28;20043;-62
2024/03/28 04:55:50;;;;;;;0.40;0.40;;;8.80;99.90;;;;;;4954047;28;20149;-62
2024/03/28 04:58:16;;;;;;;2.78;0.80;;;8.80;99.90;;;;;;4962667;28;20047;-61
2024/03/28 05:00:41;;;;;;;0.47;0.47;;;8.80;99.90;;;;;;4960309;28;20057;-62
2024/03/28 05:03:07;;;;;;;0.73;0.30;;;8.70;99.90;;;;;;4963943;28;20074;-60
2024/03/28 05:05:33;;;;;;;2.65;0.50;;;8.60;99.90;;;;;;4954597;28;20062;-61
2024/03/28 05:07:59;;;;;;;0.43;0.40;;;8.50;99.90;;;;;;4983178;28;20063;-62
2024/03/28 05:10:25;;;;;;;0.50;0.40;;;8.50;99.90;;;;;;4966437;28;20073;-62
2024/03/28 05:12:51;;;;;;;1.77;0.60;;;8.40;99.90;;;;;;4958631;28;20093;-62
2024/03/28 05:15:17;;;;;;;0.50;0.50;;;8.40;99.90;;;;;;4960923;28;20050;-62
2024/03/28 05:17:43;;;;;;;0.73;0.50;;;8.40;99.90;;;;;;4961767;28;20114;-62
2024/03/28 05:20:12;;;;;;;0.70;0.60;;;8.40;99.90;;;;;;4964598;28;20088;-63
2024/03/28 05:22:38;;;;;;;2.40;0.60;;;8.50;99.90;;;;;;4964228;28;20459;-63
2024/03/28 05:25:05;;;;;;;1.90;0.60;;;8.50;99.90;;;;;;4966369;28;20522;-62
2024/03/28 05:27:34;;;;;;;2.78;0.50;;;8.40;99.90;;;;;;4962805;28;20404;-62
2024/03/28 05:30:01;;;;;;;1.95;0.68;;;8.30;99.90;;;;;;4968184;28;20164;-62
2024/03/28 05:32:26;;;;;;;1.65;0.50;;;8.20;99.90;;;;;;4964079;28;20062;-62
2024/03/28 05:34:52;;;;;;;1.63;0.52;;;8.10;99.90;;;;;;4962219;28;20550;-62
2024/03/28 05:37:18;;;;;;;1.70;0.60;;;8.10;99.90;;;;;;4957537;28;20085;-62
2024/03/28 05:39:43;;;;;;;1.75;0.90;;;8.10;99.90;;;;;;4958729;28;20397;-62
2024/03/28 05:42:09;;;;;;;1.83;0.80;;;8.00;99.90;;;;;;4958313;28;20042;-62
2024/03/28 05:44:35;;;;;;;1.42;0.90;;;7.90;99.90;;;;;;4957490;28;20051;-62
2024/03/28 05:47:01;;;;;;;1.10;0.70;;;7.90;99.90;;;;;;4979419;28;20074;-62
2024/03/28 05:49:26;;;;;;;4.35;1.02;;;7.90;99.90;;;;;;4961579;28;20113;-63
2024/03/28 05:51:52;;;;;;;2.97;0.85;;;7.80;99.90;;;;;;4962315;28;20050;-62
2024/03/28 05:54:18;;;;;;;4.32;0.90;;;7.80;99.90;;;;;;4954453;28;20097;-62
2024/03/28 05:56:43;;;;;;;3.13;0.80;;;7.80;99.90;;;;;;4957074;28;20591;-62
2024/03/28 05:59:09;;;;;;;2.70;0.80;;;7.80;99.90;;;;;;4960987;28;20402;-62
2024/03/28 06:01:35;;;;;;;1.50;0.65;;;7.80;99.90;;;;;;4961226;28;20047;-62
2024/03/28 06:04:01;;;;;;;3.85;0.90;;;7.80;99.90;;;;;;4938290;28;20432;-62
2024/03/28 06:06:26;;;;;;;0.60;0.60;;;7.70;99.90;;;;;;4962278;28;20411;-62
2024/03/28 06:08:52;;;;;;;4.38;1.10;;;7.70;99.90;;;;;;4940028;28;20474;-62
2024/03/28 06:11:18;;;;;;;1.05;0.55;;;7.60;99.90;;;;;;4961633;28;20108;-62
2024/03/28 06:13:44;;;;;;;2.55;0.80;;;7.60;99.90;;;;;;4955868;28;20043;-62
2024/03/28 06:16:09;;;;;;;1.20;1.00;;;7.50;99.90;;;;;;4954035;28;20097;-62
2024/03/28 06:18:35;;;;;;;1.13;0.65;;;7.40;99.90;;;;;;4962563;28;20465;-62
2024/03/28 06:21:05;;;;;;;0.82;0.60;;;7.40;99.90;;;;;;4959914;28;20047;-62
2024/03/28 06:23:32;;;;;;;1.35;0.70;;;7.30;99.90;;;;;;4961455;28;20089;-62
2024/03/28 06:26:04;;;;;;;2.22;0.60;;;7.30;99.90;;;;;;4957512;28;20051;-62
2024/03/28 06:28:33;;;;;;;1.98;0.70;;;7.20;99.90;;;;;;4956174;28;20077;-62
2024/03/28 06:30:59;;;;;;;1.48;0.60;;;7.20;99.90;;;;;;4959583;28;20061;-62
2024/03/28 06:33:26;;;;;;;4.05;0.70;;;7.10;99.90;;;;;;4959717;28;20143;-62
2024/03/28 06:35:51;;;;;;;1.00;0.60;;;7.10;99.90;;;;;;4958721;28;20058;-62
2024/03/28 06:38:17;;;;;;;1.52;0.70;;;7.10;99.90;;;;;;4964652;28;20058;-62
2024/03/28 06:40:45;;;;;;;2.25;1.20;;;7.20;99.90;;;;;;4960346;28;20065;-62
2024/03/28 06:43:11;;;;;;;1.42;1.23;;;7.20;99.90;;;;;;4960411;28;20446;-62
2024/03/28 06:45:36;;;;;;;4.00;1.00;;;7.20;99.90;;;;;;4957000;28;20126;-62
2024/03/28 06:48:03;;;;;;;1.85;1.17;;;7.10;99.90;;;;;;4956761;28;20102;-62
2024/03/28 06:50:29;;;;;;;2.00;1.10;;;7.10;99.90;;;;;;4960833;28;20051;-62
2024/03/28 06:52:55;;;;;;;0.90;0.90;;;7.10;99.90;;;;;;4959559;28;20415;-62
2024/03/28 06:55:21;;;;;;;3.30;1.17;;;7.10;99.90;;;;;;4958903;28;20059;-62
2024/03/28 06:57:47;;;;;;;2.40;1.20;;;7.10;99.90;;;;;;4959354;28;20054;-62
2024/03/28 07:00:13;;;;;;;2.45;1.02;;;7.10;99.90;;;;;;4953080;28;20070;-62
2024/03/28 07:02:39;;;;;;;1.50;1.40;;;7.00;99.90;;;;;;4953780;28;20388;-62
2024/03/28 07:05:05;;;;;;;1.48;1.00;;;7.00;99.90;;;;;;4960227;28;20434;-62
2024/03/28 07:07:31;;;;;;;0.82;0.80;;;6.90;99.90;;;;;;4956145;28;20058;-62
2024/03/28 07:09:57;;;;;;;3.95;1.65;;;6.90;99.90;;;;;;4979848;28;20067;-62
2024/03/28 07:12:23;;;;;;;1.13;1.00;;;6.90;99.90;;;;;;4965777;28;20054;-62
2024/03/28 07:14:49;;;;;;;1.13;1.02;;;7.00;99.90;;;;;;4957346;28;20360;-62
2024/03/28 07:17:15;;;;;;;1.08;0.90;;;7.00;99.90;;;;;;4967708;28;20061;-62
2024/03/28 07:19:41;;;;;;;2.17;0.95;;;6.90;99.90;;;;;;4962101;28;20054;-62
2024/03/28 07:22:08;;;;;;;1.92;0.98;;;6.90;99.90;;;;;;4967006;28;20062;-62
2024/03/28 07:24:35;;;;;;;2.90;0.93;;;6.90;99.90;;;;;;4966866;28;20066;-62
2024/03/28 07:27:01;;;;;;;0.93;0.70;;;6.90;99.90;;;;;;4963103;28;20062;-62
2024/03/28 07:29:28;;;;;;;1.48;0.70;;;6.90;99.90;;;;;;4966494;28;20066;-61
2024/03/28 07:31:53;;;;;;;2.53;0.85;;;6.90;99.90;;;;;;4957224;28;20058;-62
2024/03/28 07:34:19;;;;;;;2.25;1.35;;;6.90;99.90;;;;;;4961481;28;20490;-57
2024/03/28 07:36:45;;;;;;;4.20;2.67;;;6.90;99.90;;;;;;4963549;28;20053;-60
2024/03/28 07:39:14;;;;;;;3.78;2.40;;;6.90;99.90;;;;;;4971223;28;20054;-60
2024/03/28 07:41:41;;;;;;;3.08;1.67;;;7.00;99.90;;;;;;4967606;28;20399;-60
2024/03/28 07:44:07;;;;;;;1.10;0.90;;;7.10;99.90;;;;;;4967024;28;20059;-60
2024/03/28 07:46:33;;;;;;;4.43;0.90;;;7.10;99.90;;;;;;4961924;28;20106;-60
2024/03/28 07:48:59;;;;;;;0.90;0.70;;;7.20;99.90;;;;;;4980616;28;20070;-60
2024/03/28 07:51:25;;;;;;;1.15;0.80;;;7.30;99.90;;;;;;4970168;28;20050;-60
2024/03/28 07:53:52;;;;;;;1.27;0.80;;;7.30;99.90;;;;;;4967503;28;20050;-60
2024/03/28 07:56:19;;;;;;;1.60;0.80;;;7.30;99.90;;;;;;4970790;28;20597;-60
2024/03/28 07:58:48;;;;;;;0.85;0.75;;;7.40;99.90;;;;;;4965506;28;20046;-62
2024/03/28 08:01:14;;;;;;;1.08;0.88;;;7.40;99.90;;;;;;4965749;28;20046;-62
2024/03/28 08:03:39;;;;;;;0.93;0.80;;;7.40;99.90;;;;;;4970647;28;20421;-62
2024/03/28 08:06:06;;;;;;;1.45;1.17;;;7.50;99.90;;;;;;4968011;28;20051;-62
2024/03/28 08:08:32;;;;;;;0.75;0.60;;;7.60;99.90;;;;;;4966909;28;20454;-62
2024/03/28 08:10:58;;;;;;;0.70;0.47;;;7.70;99.90;;;;;;4965087;28;20108;-62
2024/03/28 08:13:25;;;;;;;0.77;0.60;;;7.80;99.90;;;;;;4969336;28;20053;-62
2024/03/28 08:15:51;;;;;;;1.63;0.70;;;7.80;99.90;;;;;;4967362;28;20046;-62
2024/03/28 08:18:18;;;;;;;1.10;0.57;;;7.80;99.90;;;;;;4968719;28;20058;-62
2024/03/28 08:20:44;;;;;;;0.50;0.50;;;7.80;99.90;;;;;;4968970;28;20053;-62
2024/03/28 08:23:11;;;;;;;1.80;0.50;;;7.90;99.90;;;;;;4967270;28;20096;-62
2024/03/28 08:25:37;;;;;;;1.50;0.70;;;8.10;99.90;;;;;;4971484;28;20055;-62
2024/03/28 08:28:03;;;;;;;1.95;0.70;;;8.10;99.90;;;;;;4961976;28;20126;-62
2024/03/28 08:30:30;;;;;;;1.15;0.70;;;8.10;99.90;;;;;;4964873;28;20057;-62
2024/03/28 08:32:57;;;;;;;0.52;0.40;;;8.20;99.90;;;;;;4967587;28;20054;-62
2024/03/28 08:35:23;;;;;;;2.72;0.63;;;8.20;99.90;;;;;;4961986;28;20042;-62
2024/03/28 08:37:49;;;;;;;0.50;0.50;;;8.20;99.90;;;;;;4960810;28;20427;-62
2024/03/28 08:40:15;;;;;;;1.55;0.80;;;8.20;99.90;;;;;;4966657;28;20095;-62
2024/03/28 08:42:43;;;;;;;0.63;0.63;;;8.40;99.90;;;;;;4961643;28;20117;-62
2024/03/28 08:45:13;;;;;;;1.35;0.98;;;8.40;99.90;;;;;;4967636;28;20054;-62
2024/03/28 08:47:45;;;;;;;1.63;0.73;;;8.50;99.90;;;;;;4960294;28;20044;-62
2024/03/28 08:50:12;;;;;;;1.30;0.80;;;8.60;99.90;;;;;;4961904;28;20077;-62
2024/03/28 08:52:38;;;;;;;3.42;1.27;;;8.80;99.90;;;;;;4964238;28;20101;-62
2024/03/28 08:55:05;;;;;;;0.80;0.80;;;9.20;99.90;;;;;;4963459;28;20454;-62
2024/03/28 08:57:31;;;;;;;2.33;0.70;;;9.50;99.90;;;;;;4962429;28;20105;-62
2024/03/28 08:59:57;;;;;;;1.30;0.50;;;9.50;99.90;;;;;;4967120;28;20054;-62
2024/03/28 09:02:24;;;;;;;0.57;0.57;;;9.70;99.90;;;;;;4953917;28;20065;-62
2024/03/28 09:04:50;;;;;;;0.70;0.65;;;9.80;99.90;;;;;;4967752;28;20050;-62
2024/03/28 09:07:19;;;;;;;0.52;0.52;;;9.90;99.90;;;;;;4962356;28;20054;-62
2024/03/28 09:09:45;;;;;;;0.90;0.60;;;10.10;99.90;;;;;;4967417;28;20058;-62
2024/03/28 09:12:11;;;;;;;0.98;0.50;;;10.20;99.90;;;;;;4958492;28;20128;-62
2024/03/28 09:14:40;;;;;;;0.40;0.40;;;10.30;99.90;;;;;;4958086;28;20046;-62
2024/03/28 09:17:07;;;;;;;1.65;0.40;;;10.40;99.90;;;;;;4960660;28;20054;-62
2024/03/28 09:19:34;;;;;;;0.50;0.50;;;10.40;99.90;;;;;;4965647;28;20097;-62
2024/03/28 09:22:01;;;;;;;0.47;0.47;;;10.40;99.90;;;;;;4968529;28;20050;-62
2024/03/28 09:24:26;;;;;;;1.17;0.50;;;10.40;99.90;;;;;;4963148;28;20057;-62
2024/03/28 09:26:52;;;;;;;1.38;0.40;;;10.40;99.90;;;;;;4963572;28;20134;-63
2024/03/28 09:29:21;;;;;;;0.45;0.38;;;10.50;99.90;;;;;;4965158;28;20050;-63
2024/03/28 09:31:48;;;;;;;0.50;0.40;;;10.50;99.90;;;;;;4965597;28;20512;-63
2024/03/28 09:34:17;;;;;;;4.53;0.63;;;10.60;99.90;;;;;;4967151;28;20054;-62
2024/03/28 09:36:43;;;;;;;2.67;0.40;;;10.60;99.90;;;;;;4954210;28;20047;-62
2024/03/28 09:39:13;;;;;;;1.05;0.40;;;10.70;99.90;;;;;;4957075;28;20104;-62
2024/03/28 09:41:44;;;;;;;0.53;0.40;;;11.20;99.90;;;;;;4954456;28;20091;-62
2024/03/28 09:44:21;;;;;;;1.17;0.50;;;11.50;99.90;;;;;;4959182;28;20053;-62
2024/03/28 09:46:48;;;;;;;0.90;0.40;;;11.70;99.90;;;;;;4958977;28;20070;-63
2024/03/28 09:49:17;;;;;;;0.68;0.47;;;11.80;99.90;;;;;;4959023;28;20097;-62
2024/03/28 09:51:44;;;;;;;0.85;0.52;;;11.60;99.90;;;;;;4955806;28;20526;-62
2024/03/28 09:54:11;;;;;;;2.75;0.40;;;11.60;99.90;;;;;;4963984;28;20073;-63
2024/03/28 09:56:37;;;;;;;1.40;0.40;;;11.60;99.90;;;;;;4954777;28;20058;-62
2024/03/28 09:59:06;;;;;;;0.95;0.40;;;11.30;99.90;;;;;;4958650;28;20065;-62
2024/03/28 10:01:33;;;;;;;0.88;0.40;;;11.00;99.90;;;;;;4957656;28;20046;-62
2024/03/28 10:04:18;;;;;;;1.05;0.70;;;10.70;99.90;;;;;;4953425;28;20115;-62
2024/03/28 10:06:48;;;;;;;0.88;0.50;;;10.70;99.90;;;;;;4954554;28;20058;-62
2024/03/28 10:09:14;;;;;;;;;;;10.80;99.90;;;;;;4957960;28;20066;-62
2024/03/28 10:11:44;;;;;;;1.88;0.40;;;10.80;99.90;;;;;;4949703;28;19927;-62
2024/03/28 10:14:14;;;;;;;1.07;0.40;;;10.80;99.90;;;;;;4955563;28;20051;-62
2024/03/28 10:16:43;;;;;;;0.75;0.30;;;11.00;99.90;;;;;;4954450;28;20302;-62
2024/03/28 10:19:09;;;;;;;1.05;0.50;;;11.20;99.90;;;;;;4953774;28;20050;-62
2024/03/28 10:21:36;;;;;;;1.27;0.45;;;11.50;99.90;;;;;;4954417;28;20047;-63
2024/03/28 10:24:14;;;;;;;0.38;0.38;;;11.90;99.90;;;;;;4959688;28;20065;-62
2024/03/28 10:26:42;;;;;;;0.40;0.33;;;12.00;99.90;;;;;;4981808;28;20047;-62
2024/03/28 10:29:14;;;;;;;0.85;0.40;;;12.00;99.90;;;;;;4940853;28;20313;-62
2024/03/28 10:31:40;;;;;;;1.40;0.65;;;12.10;99.90;;;;;;4954866;28;20051;-62
2024/03/28 10:34:18;;;;;;;0.82;0.57;;;12.20;99.90;;;;;;4947686;28;20077;-62
2024/03/28 10:36:48;;;;;;;0.40;0.40;;;12.60;99.90;;;;;;4960197;28;20051;-63
2024/03/28 10:39:14;;;;;;;1.75;0.38;;;12.60;99.90;;;;;;4961987;28;20046;-62
2024/03/28 10:41:41;;;;;;;0.40;0.40;;;12.50;99.90;;;;;;4962558;28;20059;-62
2024/03/28 10:44:10;;;;;;;1.40;0.40;;;12.30;99.90;;;;;;4959616;28;20106;-62
2024/03/28 10:46:39;;;;;;;1.55;0.40;;;11.20;99.90;;;;;;4962584;28;20055;-62
2024/03/28 10:49:06;;;;;;;0.30;0.30;;;10.50;99.90;;;;;;4961802;28;20050;-62
2024/03/28 10:51:37;;;;;;;1.92;1.20;;;10.20;99.90;;;;;;4959464;28;20047;-62
2024/03/28 10:54:35;;;;;;;8.48;0.70;;;10.20;99.90;;;;;;4961961;28;20046;-62
2024/03/28 10:57:04;;;;;;;6.00;0.70;;;10.10;99.90;;;;;;4957854;28;20055;-62
2024/03/28 10:59:32;;;;;;;2.60;0.87;;;10.30;99.90;;;;;;4964625;28;20073;-62
2024/03/28 11:01:59;;;;;;;2.65;0.55;;;10.50;99.90;;;;;;4966951;28;20057;-63
2024/03/28 11:04:26;;;;;;;2.33;1.00;;;10.40;99.90;;;;;;4963394;28;20432;-62
2024/03/28 11:06:54;;;;;;;4.13;0.95;;;10.30;99.90;;;;;;4963618;28;20058;-62
2024/03/28 11:09:23;;;;;;;1.75;0.88;;;10.20;99.90;;;;;;4964294;28;20115;-62
2024/03/28 11:11:52;;;;;;;2.05;0.90;;;10.30;99.90;;;;;;4963097;28;20066;-62
2024/03/28 11:14:18;;;;;;;4.32;1.10;;;10.40;99.90;;;;;;4962910;28;20502;-62
2024/03/28 11:16:44;;;;;;;1.80;0.60;;;10.30;99.90;;;;;;4958877;28;20043;-62
2024/03/28 11:19:10;;;;;;;2.65;1.77;;;10.00;99.90;;;;;;4961031;28;20056;-62
2024/03/28 11:21:36;;;;;;;1.95;0.70;;;10.10;99.90;;;;;;4961591;28;20452;-62
2024/03/28 11:24:02;;;;;;;0.47;0.47;;;10.50;99.90;;;;;;4967911;28;20051;-62
2024/03/28 11:26:28;;;;;;;2.30;0.70;;;10.90;99.90;;;;;;4945527;28;20050;-63
2024/03/28 11:29:08;;;;;;;2.05;0.40;;;11.30;99.90;;;;;;4962033;28;20066;-63
2024/03/28 11:31:34;;;;;;;;;;;11.60;99.90;;;;;;4939745;28;20054;-63
2024/03/28 11:34:04;;;;;;;1.55;0.45;;;11.60;99.90;;;;;;4967013;28;19976;-62
2024/03/28 11:36:32;;;;;;;2.20;0.40;;;11.20;99.90;;;;;;4958611;28;20239;-63
2024/03/28 11:38:58;;;;;;;2.20;0.63;;;10.90;99.90;;;;;;4964523;28;20054;-63
2024/03/28 11:41:25;;;;;;;0.75;0.45;;;10.80;99.90;;;;;;4964529;28;20047;-62
2024/03/28 11:43:53;;;;;;;0.57;0.50;;;10.90;99.90;;;;;;4965336;28;20077;-62
2024/03/28 11:46:23;;;;;;;3.83;0.50;;;11.20;99.90;;;;;;4957344;28;20058;-63
2024/03/28 11:48:55;;;;;;;0.40;0.40;;;11.50;99.90;;;;;;4959791;28;20067;-62
2024/03/28 11:51:21;;;;;;;2.28;0.50;;;11.60;99.90;;;;;;4956493;28;20062;-62
2024/03/28 11:53:48;;;;;;;0.30;0.30;;;11.90;99.90;;;;;;4962381;28;20058;-62
2024/03/28 11:56:17;;;;;;;0.20;0.20;;;12.40;99.90;;;;;;4964868;28;20104;-63
2024/03/28 11:58:43;;;;;;;0.55;0.30;;;12.90;99.90;;;;;;4964525;28;20042;-62
2024/03/28 12:01:09;;;;;;;0.60;0.40;;;13.10;99.90;;;;;;4961586;28;20053;-62
2024/03/28 12:03:36;;;;;;;0.30;0.30;;;13.00;99.90;;;;;;4960254;28;20121;-63
2024/03/28 12:06:02;;;;;;;0.20;0.20;;;12.80;99.90;;;;;;4961793;28;20050;-62
2024/03/28 12:08:30;;;;;;;2.65;0.30;;;12.50;99.90;;;;;;4955694;28;20129;-62
2024/03/28 12:11:00;;;;;;;1.25;0.85;;;12.40;99.90;;;;;;4962577;28;20054;-62
2024/03/28 12:13:25;;;;;;;;;;;12.50;99.90;;;;;;4958260;28;20043;-63
2024/03/28 12:15:59;;;;;;;0.50;0.40;;;12.90;99.90;;;;;;4960861;28;19969;-63
2024/03/28 12:18:25;;;;;;;0.38;0.30;;;12.90;99.90;;;;;;4960901;28;20042;-63
2024/03/28 12:21:03;;;;;;;0.50;0.40;;;13.00;99.90;;;;;;4963220;28;20048;-62
2024/03/28 12:23:29;;;;;;;0.75;0.40;;;13.00;99.90;;;;;;4958025;28;20392;-63
2024/03/28 12:25:56;;;;;;;0.98;0.45;;;12.90;99.90;;;;;;4962301;28;20061;-63
2024/03/28 12:28:23;;;;;;;3.97;0.40;;;13.00;99.90;;;;;;4960919;28;20043;-62
2024/03/28 12:30:56;;;;;;;1.73;0.40;;;12.90;99.90;;;;;;4963217;28;20066;-62
2024/03/28 12:33:24;;;;;;;0.45;0.20;;;12.80;99.90;;;;;;4958554;28;20050;-63
2024/03/28 12:35:57;;;;;;;0.65;0.30;;;12.60;99.90;;;;;;4960712;28;20114;-62
2024/03/28 12:38:24;;;;;;;1.08;0.57;;;12.40;99.90;;;;;;4964347;28;20054;-62
2024/03/28 12:40:52;;;;;;;0.73;0.50;;;12.10;99.90;;;;;;4961297;28;20171;-62
2024/03/28 12:43:20;;;;;;;0.40;0.32;;;12.10;99.90;;;;;;4961929;28;20120;-62
2024/03/28 12:45:48;;;;;;;1.20;0.55;;;12.30;99.90;;;;;;4963775;28;20050;-63
2024/03/28 12:48:14;;;;;;;1.27;0.60;;;12.90;99.90;;;;;;4962912;28;20073;-63
2024/03/28 12:50:44;;;;;;;1.42;0.40;;;13.60;99.90;;;;;;4958305;28;20051;-62
2024/03/28 12:53:11;;;;;;;;;;;13.70;99.90;;;;;;4962913;28;20058;-62
2024/03/28 12:55:37;;;;;;;0.65;0.32;;;13.30;99.90;;;;;;4960792;28;19922;-62
2024/03/28 12:58:03;;;;;;;0.63;0.40;;;13.10;99.90;;;;;;4963435;28;20105;-63
2024/03/28 13:00:29;;;;;;;2.90;0.52;;;12.90;99.90;;;;;;4958306;28;20479;-62